sensor_id;sensor_type;location;lat;lon;timestamp;P1;durP1;ratioP1;P2;durP2;ratioP2
28170;SDS011;15458;53.346;-1.688;2024-02-21T00:00:53;11.43;;;6.63;;
28170;SDS011;15458;53.346;-1.688;2024-02-21T00:03:18;14.00;;;8.52;;
28170;SDS011;15458;53.346;-1.688;2024-02-21T00:05:44;17.38;;;7.97;;
28170;SDS011;15458;53.346;-1.688;2024-02-21T00:08:10;10.68;;;5.60;;
28170;SDS011;15458;53.346;-1.688;2024-02-21T00:10:36;10.48;;;5.30;;
28170;SDS011;15458;53.346;-1.688;2024-02-21T00:13:02;16.08;;;7.50;;
28170;SDS011;15458;53.346;-1.688;2024-02-21T00:15:28;7.70;;;5.05;;
28170;SDS011;15458;53.346;-1.688;2024-02-21T00:17:54;8.85;;;5.43;;
28170;SDS011;15458;53.346;-1.688;2024-02-21T00:20:19;11.00;;;6.45;;
28170;SDS011;15458;53.346;-1.688;2024-02-21T00:22:45;8.93;;;4.70;;
28170;SDS011;15458;53.346;-1.688;2024-02-21T00:25:11;8.98;;;5.43;;
28170;SDS011;15458;53.346;-1.688;2024-02-21T00:27:37;10.90;;;6.03;;
28170;SDS011;15458;53.346;-1.688;2024-02-21T00:30:04;11.73;;;6.28;;
28170;SDS011;15458;53.346;-1.688;2024-02-21T00:32:32;12.18;;;5.95;;
28170;SDS011;15458;53.346;-1.688;2024-02-21T00:34:59;15.00;;;7.47;;
28170;SDS011;15458;53.346;-1.688;2024-02-21T00:37:26;11.27;;;7.05;;
28170;SDS011;15458;53.346;-1.688;2024-02-21T00:39:53;10.48;;;5.93;;
28170;SDS011;15458;53.346;-1.688;2024-02-21T00:42:19;10.40;;;5.85;;
28170;SDS011;15458;53.346;-1.688;2024-02-21T00:44:46;14.00;;;7.15;;
28170;SDS011;15458;53.346;-1.688;2024-02-21T00:47:12;15.00;;;7.25;;
28170;SDS011;15458;53.346;-1.688;2024-02-21T00:49:37;10.25;;;5.60;;
28170;SDS011;15458;53.346;-1.688;2024-02-21T00:52:03;12.85;;;7.13;;
28170;SDS011;15458;53.346;-1.688;2024-02-21T00:54:29;15.02;;;7.07;;
28170;SDS011;15458;53.346;-1.688;2024-02-21T00:56:55;16.77;;;7.35;;
28170;SDS011;15458;53.346;-1.688;2024-02-21T00:59:20;11.05;;;5.57;;
28170;SDS011;15458;53.346;-1.688;2024-02-21T01:01:46;15.65;;;7.57;;
28170;SDS011;15458;53.346;-1.688;2024-02-21T01:04:12;13.85;;;6.75;;
28170;SDS011;15458;53.346;-1.688;2024-02-21T01:06:38;10.55;;;6.72;;
28170;SDS011;15458;53.346;-1.688;2024-02-21T01:09:04;10.77;;;5.95;;
28170;SDS011;15458;53.346;-1.688;2024-02-21T01:11:30;8.57;;;5.60;;
28170;SDS011;15458;53.346;-1.688;2024-02-21T01:13:55;8.85;;;5.47;;
28170;SDS011;15458;53.346;-1.688;2024-02-21T01:16:21;13.85;;;7.82;;
28170;SDS011;15458;53.346;-1.688;2024-02-21T01:18:47;11.10;;;5.60;;
28170;SDS011;15458;53.346;-1.688;2024-02-21T01:21:12;10.20;;;5.85;;
28170;SDS011;15458;53.346;-1.688;2024-02-21T01:23:38;10.57;;;6.13;;
28170;SDS011;15458;53.346;-1.688;2024-02-21T01:26:04;16.48;;;6.45;;
28170;SDS011;15458;53.346;-1.688;2024-02-21T01:28:33;11.60;;;6.47;;
28170;SDS011;15458;53.346;-1.688;2024-02-21T01:31:00;12.00;;;6.57;;
28170;SDS011;15458;53.346;-1.688;2024-02-21T01:33:25;11.98;;;6.35;;
28170;SDS011;15458;53.346;-1.688;2024-02-21T01:35:51;11.65;;;6.10;;
28170;SDS011;15458;53.346;-1.688;2024-02-21T01:38:17;9.70;;;5.70;;
28170;SDS011;15458;53.346;-1.688;2024-02-21T01:40:43;11.23;;;6.55;;
28170;SDS011;15458;53.346;-1.688;2024-02-21T01:43:16;10.75;;;6.28;;
28170;SDS011;15458;53.346;-1.688;2024-02-21T01:45:46;10.15;;;6.30;;
28170;SDS011;15458;53.346;-1.688;2024-02-21T01:48:23;8.70;;;5.38;;
28170;SDS011;15458;53.346;-1.688;2024-02-21T01:50:49;11.20;;;6.22;;
28170;SDS011;15458;53.346;-1.688;2024-02-21T01:53:19;13.20;;;6.03;;
28170;SDS011;15458;53.346;-1.688;2024-02-21T01:55:52;9.65;;;5.97;;
28170;SDS011;15458;53.346;-1.688;2024-02-21T01:58:18;12.40;;;7.07;;
28170;SDS011;15458;53.346;-1.688;2024-02-21T02:00:45;10.88;;;5.68;;
28170;SDS011;15458;53.346;-1.688;2024-02-21T02:03:13;14.05;;;6.93;;
28170;SDS011;15458;53.346;-1.688;2024-02-21T02:05:48;15.90;;;7.57;;
28170;SDS011;15458;53.346;-1.688;2024-02-21T02:08:16;12.27;;;7.47;;
28170;SDS011;15458;53.346;-1.688;2024-02-21T02:10:42;14.35;;;7.55;;
28170;SDS011;15458;53.346;-1.688;2024-02-21T02:13:09;10.40;;;7.00;;
28170;SDS011;15458;53.346;-1.688;2024-02-21T02:15:39;12.63;;;7.07;;
28170;SDS011;15458;53.346;-1.688;2024-02-21T02:18:07;10.52;;;6.53;;
28170;SDS011;15458;53.346;-1.688;2024-02-21T02:20:34;12.00;;;7.07;;
28170;SDS011;15458;53.346;-1.688;2024-02-21T02:23:02;10.70;;;6.35;;
28170;SDS011;15458;53.346;-1.688;2024-02-21T02:25:34;10.82;;;7.13;;
28170;SDS011;15458;53.346;-1.688;2024-02-21T02:28:00;12.30;;;6.72;;
28170;SDS011;15458;53.346;-1.688;2024-02-21T02:30:26;10.63;;;5.95;;
28170;SDS011;15458;53.346;-1.688;2024-02-21T02:32:54;10.57;;;5.85;;
28170;SDS011;15458;53.346;-1.688;2024-02-21T02:35:20;11.10;;;6.38;;
28170;SDS011;15458;53.346;-1.688;2024-02-21T02:37:49;9.68;;;5.82;;
28170;SDS011;15458;53.346;-1.688;2024-02-21T02:40:18;11.23;;;6.30;;
28170;SDS011;15458;53.346;-1.688;2024-02-21T02:42:44;10.27;;;6.90;;
28170;SDS011;15458;53.346;-1.688;2024-02-21T02:45:12;11.55;;;7.07;;
28170;SDS011;15458;53.346;-1.688;2024-02-21T02:47:39;12.25;;;7.65;;
28170;SDS011;15458;53.346;-1.688;2024-02-21T02:50:05;12.02;;;7.10;;
28170;SDS011;15458;53.346;-1.688;2024-02-21T02:52:31;16.17;;;8.23;;
28170;SDS011;15458;53.346;-1.688;2024-02-21T02:54:57;14.85;;;8.18;;
28170;SDS011;15458;53.346;-1.688;2024-02-21T02:57:23;13.63;;;8.05;;
28170;SDS011;15458;53.346;-1.688;2024-02-21T02:59:49;14.50;;;7.82;;
28170;SDS011;15458;53.346;-1.688;2024-02-21T03:02:16;15.00;;;8.23;;
28170;SDS011;15458;53.346;-1.688;2024-02-21T03:04:43;15.90;;;7.13;;
28170;SDS011;15458;53.346;-1.688;2024-02-21T03:07:09;13.23;;;8.57;;
28170;SDS011;15458;53.346;-1.688;2024-02-21T03:09:38;18.65;;;8.80;;
28170;SDS011;15458;53.346;-1.688;2024-02-21T03:12:05;18.52;;;9.20;;
28170;SDS011;15458;53.346;-1.688;2024-02-21T03:14:31;17.75;;;9.93;;
28170;SDS011;15458;53.346;-1.688;2024-02-21T03:16:59;13.63;;;7.60;;
28170;SDS011;15458;53.346;-1.688;2024-02-21T03:19:25;13.50;;;8.38;;
28170;SDS011;15458;53.346;-1.688;2024-02-21T03:21:51;13.23;;;9.15;;
28170;SDS011;15458;53.346;-1.688;2024-02-21T03:24:20;16.40;;;9.18;;
28170;SDS011;15458;53.346;-1.688;2024-02-21T03:26:47;16.75;;;8.98;;
28170;SDS011;15458;53.346;-1.688;2024-02-21T03:29:14;18.17;;;8.73;;
28170;SDS011;15458;53.346;-1.688;2024-02-21T03:31:41;12.38;;;7.63;;
28170;SDS011;15458;53.346;-1.688;2024-02-21T03:34:08;13.30;;;8.48;;
28170;SDS011;15458;53.346;-1.688;2024-02-21T03:36:36;13.23;;;9.27;;
28170;SDS011;15458;53.346;-1.688;2024-02-21T03:39:01;16.70;;;7.95;;
28170;SDS011;15458;53.346;-1.688;2024-02-21T03:41:27;17.92;;;8.45;;
28170;SDS011;15458;53.346;-1.688;2024-02-21T03:43:53;13.27;;;7.38;;
28170;SDS011;15458;53.346;-1.688;2024-02-21T03:46:19;19.98;;;7.35;;
28170;SDS011;15458;53.346;-1.688;2024-02-21T03:48:45;13.20;;;6.60;;
28170;SDS011;15458;53.346;-1.688;2024-02-21T03:51:11;12.95;;;6.50;;
28170;SDS011;15458;53.346;-1.688;2024-02-21T03:53:37;8.48;;;5.20;;
28170;SDS011;15458;53.346;-1.688;2024-02-21T03:56:03;8.88;;;5.15;;
28170;SDS011;15458;53.346;-1.688;2024-02-21T03:58:32;10.50;;;4.85;;
28170;SDS011;15458;53.346;-1.688;2024-02-21T04:01:01;7.38;;;3.88;;
28170;SDS011;15458;53.346;-1.688;2024-02-21T04:03:28;11.97;;;4.00;;
28170;SDS011;15458;53.346;-1.688;2024-02-21T04:05:54;5.90;;;4.10;;
28170;SDS011;15458;53.346;-1.688;2024-02-21T04:08:20;5.43;;;3.47;;
28170;SDS011;15458;53.346;-1.688;2024-02-21T04:10:46;6.95;;;3.53;;
28170;SDS011;15458;53.346;-1.688;2024-02-21T04:13:12;3.30;;;2.88;;
28170;SDS011;15458;53.346;-1.688;2024-02-21T04:15:38;4.60;;;3.17;;
28170;SDS011;15458;53.346;-1.688;2024-02-21T04:18:05;4.80;;;3.00;;
28170;SDS011;15458;53.346;-1.688;2024-02-21T04:20:31;6.18;;;3.22;;
28170;SDS011;15458;53.346;-1.688;2024-02-21T04:22:57;2.58;;;2.38;;
28170;SDS011;15458;53.346;-1.688;2024-02-21T04:25:23;4.60;;;2.38;;
28170;SDS011;15458;53.346;-1.688;2024-02-21T04:27:49;2.75;;;2.13;;
28170;SDS011;15458;53.346;-1.688;2024-02-21T04:30:15;5.78;;;2.10;;
28170;SDS011;15458;53.346;-1.688;2024-02-21T04:32:41;3.55;;;1.88;;
28170;SDS011;15458;53.346;-1.688;2024-02-21T04:35:07;4.25;;;1.67;;
28170;SDS011;15458;53.346;-1.688;2024-02-21T04:37:33;2.50;;;1.60;;
28170;SDS011;15458;53.346;-1.688;2024-02-21T04:39:59;2.00;;;1.67;;
28170;SDS011;15458;53.346;-1.688;2024-02-21T04:42:25;2.75;;;1.55;;
28170;SDS011;15458;53.346;-1.688;2024-02-21T04:44:51;3.75;;;1.75;;
28170;SDS011;15458;53.346;-1.688;2024-02-21T04:47:17;1.65;;;1.27;;
28170;SDS011;15458;53.346;-1.688;2024-02-21T04:49:43;4.22;;;1.70;;
28170;SDS011;15458;53.346;-1.688;2024-02-21T04:52:09;1.95;;;1.63;;
28170;SDS011;15458;53.346;-1.688;2024-02-21T04:54:35;1.83;;;1.30;;
28170;SDS011;15458;53.346;-1.688;2024-02-21T04:57:00;2.20;;;1.67;;
28170;SDS011;15458;53.346;-1.688;2024-02-21T04:59:26;3.67;;;1.50;;
28170;SDS011;15458;53.346;-1.688;2024-02-21T05:01:52;2.30;;;1.23;;
28170;SDS011;15458;53.346;-1.688;2024-02-21T05:04:18;1.15;;;0.93;;
28170;SDS011;15458;53.346;-1.688;2024-02-21T05:06:44;2.22;;;0.98;;
28170;SDS011;15458;53.346;-1.688;2024-02-21T05:09:09;1.00;;;0.90;;
28170;SDS011;15458;53.346;-1.688;2024-02-21T05:11:35;0.73;;;0.70;;
28170;SDS011;15458;53.346;-1.688;2024-02-21T05:14:02;3.47;;;1.30;;
28170;SDS011;15458;53.346;-1.688;2024-02-21T05:16:29;0.77;;;0.70;;
28170;SDS011;15458;53.346;-1.688;2024-02-21T05:18:59;1.17;;;0.95;;
28170;SDS011;15458;53.346;-1.688;2024-02-21T05:21:25;0.95;;;0.70;;
28170;SDS011;15458;53.346;-1.688;2024-02-21T05:23:53;0.60;;;0.60;;
28170;SDS011;15458;53.346;-1.688;2024-02-21T05:26:22;0.68;;;0.68;;
28170;SDS011;15458;53.346;-1.688;2024-02-21T05:28:49;0.68;;;0.68;;
28170;SDS011;15458;53.346;-1.688;2024-02-21T05:31:19;0.50;;;0.50;;
28170;SDS011;15458;53.346;-1.688;2024-02-21T05:33:45;2.92;;;0.60;;
28170;SDS011;15458;53.346;-1.688;2024-02-21T05:36:12;0.50;;;0.50;;
28170;SDS011;15458;53.346;-1.688;2024-02-21T05:38:38;0.68;;;0.45;;
28170;SDS011;15458;53.346;-1.688;2024-02-21T05:41:04;0.70;;;0.30;;
28170;SDS011;15458;53.346;-1.688;2024-02-21T05:43:30;0.43;;;0.40;;
28170;SDS011;15458;53.346;-1.688;2024-02-21T05:45:56;0.52;;;0.40;;
28170;SDS011;15458;53.346;-1.688;2024-02-21T05:48:22;0.40;;;0.40;;
28170;SDS011;15458;53.346;-1.688;2024-02-21T05:50:49;1.02;;;0.40;;
28170;SDS011;15458;53.346;-1.688;2024-02-21T05:53:15;1.35;;;0.60;;
28170;SDS011;15458;53.346;-1.688;2024-02-21T05:55:40;0.40;;;0.40;;
28170;SDS011;15458;53.346;-1.688;2024-02-21T05:58:06;0.40;;;0.40;;
28170;SDS011;15458;53.346;-1.688;2024-02-21T06:00:32;1.50;;;0.50;;
28170;SDS011;15458;53.346;-1.688;2024-02-21T06:02:58;0.50;;;0.43;;
28170;SDS011;15458;53.346;-1.688;2024-02-21T06:05:24;1.27;;;0.50;;
28170;SDS011;15458;53.346;-1.688;2024-02-21T06:07:50;0.65;;;0.57;;
28170;SDS011;15458;53.346;-1.688;2024-02-21T06:10:16;0.52;;;0.45;;
28170;SDS011;15458;53.346;-1.688;2024-02-21T06:12:42;0.57;;;0.50;;
28170;SDS011;15458;53.346;-1.688;2024-02-21T06:15:07;1.33;;;0.60;;
28170;SDS011;15458;53.346;-1.688;2024-02-21T06:17:33;2.17;;;1.05;;
28170;SDS011;15458;53.346;-1.688;2024-02-21T06:19:59;0.73;;;0.50;;
28170;SDS011;15458;53.346;-1.688;2024-02-21T06:22:25;4.50;;;0.65;;
28170;SDS011;15458;53.346;-1.688;2024-02-21T06:24:50;2.03;;;0.60;;
28170;SDS011;15458;53.346;-1.688;2024-02-21T06:27:16;1.00;;;0.60;;
28170;SDS011;15458;53.346;-1.688;2024-02-21T06:29:42;0.80;;;0.60;;
28170;SDS011;15458;53.346;-1.688;2024-02-21T06:32:08;0.90;;;0.50;;
28170;SDS011;15458;53.346;-1.688;2024-02-21T06:34:34;2.05;;;0.70;;
28170;SDS011;15458;53.346;-1.688;2024-02-21T06:36:59;0.98;;;0.80;;
28170;SDS011;15458;53.346;-1.688;2024-02-21T06:39:25;1.15;;;0.73;;
28170;SDS011;15458;53.346;-1.688;2024-02-21T06:41:51;0.90;;;0.80;;
28170;SDS011;15458;53.346;-1.688;2024-02-21T06:44:18;2.45;;;1.05;;
28170;SDS011;15458;53.346;-1.688;2024-02-21T06:46:44;1.20;;;0.90;;
28170;SDS011;15458;53.346;-1.688;2024-02-21T06:49:10;2.67;;;0.85;;
28170;SDS011;15458;53.346;-1.688;2024-02-21T06:51:42;0.77;;;0.70;;
28170;SDS011;15458;53.346;-1.688;2024-02-21T06:54:08;1.73;;;0.70;;
28170;SDS011;15458;53.346;-1.688;2024-02-21T06:56:37;2.35;;;0.77;;
28170;SDS011;15458;53.346;-1.688;2024-02-21T06:59:06;1.63;;;0.88;;
28170;SDS011;15458;53.346;-1.688;2024-02-21T07:01:31;2.30;;;0.80;;
28170;SDS011;15458;53.346;-1.688;2024-02-21T07:03:57;2.58;;;0.90;;
28170;SDS011;15458;53.346;-1.688;2024-02-21T07:06:23;1.02;;;0.73;;
28170;SDS011;15458;53.346;-1.688;2024-02-21T07:08:49;2.08;;;1.13;;
28170;SDS011;15458;53.346;-1.688;2024-02-21T07:11:15;0.98;;;0.90;;
28170;SDS011;15458;53.346;-1.688;2024-02-21T07:13:41;1.48;;;0.98;;
28170;SDS011;15458;53.346;-1.688;2024-02-21T07:16:07;2.38;;;1.30;;
28170;SDS011;15458;53.346;-1.688;2024-02-21T07:18:33;1.67;;;1.23;;
28170;SDS011;15458;53.346;-1.688;2024-02-21T07:20:59;2.78;;;1.10;;
28170;SDS011;15458;53.346;-1.688;2024-02-21T07:23:25;3.15;;;1.20;;
28170;SDS011;15458;53.346;-1.688;2024-02-21T07:25:51;4.07;;;2.25;;
28170;SDS011;15458;53.346;-1.688;2024-02-21T07:28:16;2.55;;;1.20;;
28170;SDS011;15458;53.346;-1.688;2024-02-21T07:30:42;3.28;;;1.30;;
28170;SDS011;15458;53.346;-1.688;2024-02-21T07:33:08;2.05;;;1.02;;
28170;SDS011;15458;53.346;-1.688;2024-02-21T07:35:34;2.45;;;1.40;;
28170;SDS011;15458;53.346;-1.688;2024-02-21T07:38:03;3.58;;;1.05;;
28170;SDS011;15458;53.346;-1.688;2024-02-21T07:40:30;2.58;;;1.23;;
28170;SDS011;15458;53.346;-1.688;2024-02-21T07:42:55;4.70;;;1.10;;
28170;SDS011;15458;53.346;-1.688;2024-02-21T07:45:21;4.47;;;1.42;;
28170;SDS011;15458;53.346;-1.688;2024-02-21T07:47:49;1.65;;;1.10;;
28170;SDS011;15458;53.346;-1.688;2024-02-21T07:50:15;1.88;;;1.25;;
28170;SDS011;15458;53.346;-1.688;2024-02-21T07:52:42;2.08;;;1.20;;
28170;SDS011;15458;53.346;-1.688;2024-02-21T07:55:08;7.78;;;1.67;;
28170;SDS011;15458;53.346;-1.688;2024-02-21T07:57:35;2.83;;;1.17;;
28170;SDS011;15458;53.346;-1.688;2024-02-21T08:00:01;2.65;;;1.40;;
28170;SDS011;15458;53.346;-1.688;2024-02-21T08:02:29;4.53;;;1.40;;
28170;SDS011;15458;53.346;-1.688;2024-02-21T08:04:55;4.15;;;1.33;;
28170;SDS011;15458;53.346;-1.688;2024-02-21T08:07:20;2.03;;;1.15;;
28170;SDS011;15458;53.346;-1.688;2024-02-21T08:09:47;3.42;;;1.08;;
28170;SDS011;15458;53.346;-1.688;2024-02-21T08:12:13;3.28;;;1.65;;
28170;SDS011;15458;53.346;-1.688;2024-02-21T08:14:39;3.05;;;1.15;;
28170;SDS011;15458;53.346;-1.688;2024-02-21T08:17:04;2.05;;;1.20;;
28170;SDS011;15458;53.346;-1.688;2024-02-21T08:19:30;2.92;;;1.33;;
28170;SDS011;15458;53.346;-1.688;2024-02-21T08:21:56;1.70;;;1.10;;
28170;SDS011;15458;53.346;-1.688;2024-02-21T08:24:21;1.00;;;0.90;;
28170;SDS011;15458;53.346;-1.688;2024-02-21T08:26:48;2.22;;;1.10;;
28170;SDS011;15458;53.346;-1.688;2024-02-21T08:29:14;2.67;;;1.30;;
28170;SDS011;15458;53.346;-1.688;2024-02-21T08:31:40;3.72;;;1.15;;
28170;SDS011;15458;53.346;-1.688;2024-02-21T08:34:05;1.38;;;1.10;;
28170;SDS011;15458;53.346;-1.688;2024-02-21T08:36:31;1.90;;;0.98;;
28170;SDS011;15458;53.346;-1.688;2024-02-21T08:38:59;1.58;;;1.02;;
28170;SDS011;15458;53.346;-1.688;2024-02-21T08:41:25;1.90;;;1.05;;
28170;SDS011;15458;53.346;-1.688;2024-02-21T08:43:52;1.15;;;0.95;;
28170;SDS011;15458;53.346;-1.688;2024-02-21T08:46:22;1.70;;;1.17;;
28170;SDS011;15458;53.346;-1.688;2024-02-21T08:48:49;2.15;;;0.90;;
28170;SDS011;15458;53.346;-1.688;2024-02-21T08:51:16;2.95;;;1.08;;
28170;SDS011;15458;53.346;-1.688;2024-02-21T08:53:42;1.50;;;1.08;;
28170;SDS011;15458;53.346;-1.688;2024-02-21T08:56:09;1.58;;;0.93;;
28170;SDS011;15458;53.346;-1.688;2024-02-21T08:58:35;1.08;;;0.88;;
28170;SDS011;15458;53.346;-1.688;2024-02-21T09:01:02;2.60;;;1.00;;
28170;SDS011;15458;53.346;-1.688;2024-02-21T09:03:30;0.80;;;0.80;;
28170;SDS011;15458;53.346;-1.688;2024-02-21T09:05:57;1.90;;;0.80;;
28170;SDS011;15458;53.346;-1.688;2024-02-21T09:08:23;2.20;;;0.70;;
28170;SDS011;15458;53.346;-1.688;2024-02-21T09:10:49;0.43;;;0.40;;
28170;SDS011;15458;53.346;-1.688;2024-02-21T09:13:15;0.45;;;0.45;;
28170;SDS011;15458;53.346;-1.688;2024-02-21T09:15:42;0.50;;;0.40;;
28170;SDS011;15458;53.346;-1.688;2024-02-21T09:18:07;2.72;;;0.70;;
28170;SDS011;15458;53.346;-1.688;2024-02-21T09:20:33;0.47;;;0.47;;
28170;SDS011;15458;53.346;-1.688;2024-02-21T09:22:59;0.50;;;0.40;;
28170;SDS011;15458;53.346;-1.688;2024-02-21T09:25:25;2.40;;;0.30;;
28170;SDS011;15458;53.346;-1.688;2024-02-21T09:27:51;0.75;;;0.50;;
28170;SDS011;15458;53.346;-1.688;2024-02-21T09:30:24;4.85;;;0.60;;
28170;SDS011;15458;53.346;-1.688;2024-02-21T09:32:50;0.70;;;0.50;;
28170;SDS011;15458;53.346;-1.688;2024-02-21T09:35:17;1.15;;;0.70;;
28170;SDS011;15458;53.346;-1.688;2024-02-21T09:37:43;0.57;;;0.35;;
28170;SDS011;15458;53.346;-1.688;2024-02-21T09:40:09;2.58;;;0.45;;
28170;SDS011;15458;53.346;-1.688;2024-02-21T09:42:39;0.57;;;0.57;;
28170;SDS011;15458;53.346;-1.688;2024-02-21T09:45:19;0.20;;;0.20;;
28170;SDS011;15458;53.346;-1.688;2024-02-21T09:50:51;0.65;;;0.50;;
28170;SDS011;15458;53.346;-1.688;2024-02-21T09:53:20;0.50;;;0.32;;
28170;SDS011;15458;53.346;-1.688;2024-02-21T09:55:47;2.00;;;0.47;;
28170;SDS011;15458;53.346;-1.688;2024-02-21T09:58:14;0.77;;;0.77;;
28170;SDS011;15458;53.346;-1.688;2024-02-21T10:00:40;1.48;;;0.73;;
28170;SDS011;15458;53.346;-1.688;2024-02-21T10:03:06;0.73;;;0.30;;
28170;SDS011;15458;53.346;-1.688;2024-02-21T10:05:34;1.50;;;0.50;;
28170;SDS011;15458;53.346;-1.688;2024-02-21T10:08:01;0.63;;;0.30;;
28170;SDS011;15458;53.346;-1.688;2024-02-21T10:10:27;1.63;;;0.40;;
28170;SDS011;15458;53.346;-1.688;2024-02-21T10:12:55;2.20;;;0.38;;
28170;SDS011;15458;53.346;-1.688;2024-02-21T10:15:23;0.75;;;0.40;;
28170;SDS011;15458;53.346;-1.688;2024-02-21T10:17:49;0.20;;;0.20;;
28170;SDS011;15458;53.346;-1.688;2024-02-21T10:20:23;0.73;;;0.32;;
28170;SDS011;15458;53.346;-1.688;2024-02-21T10:22:49;0.52;;;0.38;;
28170;SDS011;15458;53.346;-1.688;2024-02-21T10:25:33;2.08;;;0.30;;
28170;SDS011;15458;53.346;-1.688;2024-02-21T10:28:08;0.35;;;0.35;;
28170;SDS011;15458;53.346;-1.688;2024-02-21T10:30:36;0.30;;;0.30;;
28170;SDS011;15458;53.346;-1.688;2024-02-21T10:33:02;0.85;;;0.20;;
28170;SDS011;15458;53.346;-1.688;2024-02-21T10:35:31;0.32;;;0.32;;
28170;SDS011;15458;53.346;-1.688;2024-02-21T10:37:57;0.57;;;0.22;;
28170;SDS011;15458;53.346;-1.688;2024-02-21T10:40:28;0.20;;;0.20;;
28170;SDS011;15458;53.346;-1.688;2024-02-21T10:42:59;0.65;;;0.30;;
28170;SDS011;15458;53.346;-1.688;2024-02-21T10:45:28;1.40;;;0.45;;
28170;SDS011;15458;53.346;-1.688;2024-02-21T10:48:13;0.25;;;0.25;;
28170;SDS011;15458;53.346;-1.688;2024-02-21T10:56:32;0.55;;;0.40;;
28170;SDS011;15458;53.346;-1.688;2024-02-21T10:59:02;0.68;;;0.50;;
28170;SDS011;15458;53.346;-1.688;2024-02-21T11:01:29;0.40;;;0.30;;
28170;SDS011;15458;53.346;-1.688;2024-02-21T11:03:57;0.40;;;0.40;;
28170;SDS011;15458;53.346;-1.688;2024-02-21T11:06:26;0.73;;;0.30;;
28170;SDS011;15458;53.346;-1.688;2024-02-21T11:09:06;0.55;;;0.40;;
28170;SDS011;15458;53.346;-1.688;2024-02-21T11:11:33;0.32;;;0.20;;
28170;SDS011;15458;53.346;-1.688;2024-02-21T11:16:36;2.33;;;0.50;;
28170;SDS011;15458;53.346;-1.688;2024-02-21T11:19:04;3.58;;;0.38;;
28170;SDS011;15458;53.346;-1.688;2024-02-21T11:21:36;0.47;;;0.47;;
28170;SDS011;15458;53.346;-1.688;2024-02-21T11:24:05;1.13;;;0.30;;
28170;SDS011;15458;53.346;-1.688;2024-02-21T11:26:31;0.38;;;0.38;;
28170;SDS011;15458;53.346;-1.688;2024-02-21T11:29:00;0.50;;;0.40;;
28170;SDS011;15458;53.346;-1.688;2024-02-21T11:31:40;1.23;;;0.30;;
28170;SDS011;15458;53.346;-1.688;2024-02-21T11:34:10;2.10;;;0.40;;
28170;SDS011;15458;53.346;-1.688;2024-02-21T11:36:51;1.27;;;0.45;;
28170;SDS011;15458;53.346;-1.688;2024-02-21T11:39:20;0.47;;;0.47;;
28170;SDS011;15458;53.346;-1.688;2024-02-21T11:41:47;0.85;;;0.30;;
28170;SDS011;15458;53.346;-1.688;2024-02-21T11:44:24;2.00;;;0.63;;
28170;SDS011;15458;53.346;-1.688;2024-02-21T11:46:50;1.65;;;0.60;;
28170;SDS011;15458;53.346;-1.688;2024-02-21T11:49:16;0.75;;;0.40;;
28170;SDS011;15458;53.346;-1.688;2024-02-21T11:51:41;0.63;;;0.38;;
28170;SDS011;15458;53.346;-1.688;2024-02-21T11:54:07;0.28;;;0.28;;
28170;SDS011;15458;53.346;-1.688;2024-02-21T11:56:34;0.57;;;0.30;;
28170;SDS011;15458;53.346;-1.688;2024-02-21T11:59:00;0.40;;;0.40;;
28170;SDS011;15458;53.346;-1.688;2024-02-21T12:01:26;0.95;;;0.70;;
28170;SDS011;15458;53.346;-1.688;2024-02-21T12:03:51;1.95;;;0.88;;
28170;SDS011;15458;53.346;-1.688;2024-02-21T12:06:17;0.40;;;0.30;;
28170;SDS011;15458;53.346;-1.688;2024-02-21T12:08:45;0.93;;;0.35;;
28170;SDS011;15458;53.346;-1.688;2024-02-21T12:11:21;0.30;;;0.30;;
28170;SDS011;15458;53.346;-1.688;2024-02-21T12:13:48;0.20;;;0.20;;
28170;SDS011;15458;53.346;-1.688;2024-02-21T12:18:55;0.32;;;0.30;;
28170;SDS011;15458;53.346;-1.688;2024-02-21T12:21:25;1.00;;;0.40;;
28170;SDS011;15458;53.346;-1.688;2024-02-21T12:26:48;0.40;;;0.30;;
28170;SDS011;15458;53.346;-1.688;2024-02-21T12:29:14;0.52;;;0.38;;
28170;SDS011;15458;53.346;-1.688;2024-02-21T12:31:40;0.73;;;0.47;;
28170;SDS011;15458;53.346;-1.688;2024-02-21T12:34:06;1.17;;;0.68;;
28170;SDS011;15458;53.346;-1.688;2024-02-21T12:36:32;1.00;;;0.90;;
28170;SDS011;15458;53.346;-1.688;2024-02-21T12:38:58;3.70;;;2.03;;
28170;SDS011;15458;53.346;-1.688;2024-02-21T12:41:26;2.42;;;1.40;;
28170;SDS011;15458;53.346;-1.688;2024-02-21T12:43:53;1.25;;;0.77;;
28170;SDS011;15458;53.346;-1.688;2024-02-21T12:46:19;0.95;;;0.70;;
28170;SDS011;15458;53.346;-1.688;2024-02-21T12:48:44;0.70;;;0.55;;
28170;SDS011;15458;53.346;-1.688;2024-02-21T12:51:10;1.70;;;0.40;;
28170;SDS011;15458;53.346;-1.688;2024-02-21T12:53:36;0.38;;;0.35;;
28170;SDS011;15458;53.346;-1.688;2024-02-21T12:56:08;0.28;;;0.28;;
28170;SDS011;15458;53.346;-1.688;2024-02-21T12:58:35;1.15;;;0.70;;
28170;SDS011;15458;53.346;-1.688;2024-02-21T13:01:20;0.80;;;0.55;;
28170;SDS011;15458;53.346;-1.688;2024-02-21T13:06:28;1.55;;;0.40;;
28170;SDS011;15458;53.346;-1.688;2024-02-21T13:09:05;0.50;;;0.20;;
28170;SDS011;15458;53.346;-1.688;2024-02-21T13:11:36;0.40;;;0.40;;
28170;SDS011;15458;53.346;-1.688;2024-02-21T13:14:11;1.25;;;0.40;;
28170;SDS011;15458;53.346;-1.688;2024-02-21T13:16:36;0.28;;;0.10;;
28170;SDS011;15458;53.346;-1.688;2024-02-21T13:19:07;1.20;;;0.43;;
28170;SDS011;15458;53.346;-1.688;2024-02-21T13:21:36;0.43;;;0.20;;
28170;SDS011;15458;53.346;-1.688;2024-02-21T13:24:02;0.20;;;0.20;;
28170;SDS011;15458;53.346;-1.688;2024-02-21T13:26:28;0.88;;;0.38;;
28170;SDS011;15458;53.346;-1.688;2024-02-21T13:28:54;0.15;;;0.15;;
28170;SDS011;15458;53.346;-1.688;2024-02-21T13:31:20;0.20;;;0.20;;
28170;SDS011;15458;53.346;-1.688;2024-02-21T13:33:46;0.20;;;0.20;;
28170;SDS011;15458;53.346;-1.688;2024-02-21T13:36:12;0.20;;;0.20;;
28170;SDS011;15458;53.346;-1.688;2024-02-21T13:38:37;0.20;;;0.20;;
28170;SDS011;15458;53.346;-1.688;2024-02-21T13:41:04;0.80;;;0.57;;
28170;SDS011;15458;53.346;-1.688;2024-02-21T13:43:31;0.82;;;0.30;;
28170;SDS011;15458;53.346;-1.688;2024-02-21T13:45:58;1.38;;;0.30;;
28170;SDS011;15458;53.346;-1.688;2024-02-21T13:48:24;0.63;;;0.40;;
28170;SDS011;15458;53.346;-1.688;2024-02-21T13:50:51;0.20;;;0.20;;
28170;SDS011;15458;53.346;-1.688;2024-02-21T13:53:17;0.15;;;0.10;;
28170;SDS011;15458;53.346;-1.688;2024-02-21T13:55:44;0.03;;;0.03;;
28170;SDS011;15458;53.346;-1.688;2024-02-21T13:58:10;0.10;;;0.10;;
28170;SDS011;15458;53.346;-1.688;2024-02-21T14:00:36;0.82;;;0.20;;
28170;SDS011;15458;53.346;-1.688;2024-02-21T14:03:02;1.17;;;0.25;;
28170;SDS011;15458;53.346;-1.688;2024-02-21T14:05:28;0.30;;;0.30;;
28170;SDS011;15458;53.346;-1.688;2024-02-21T14:07:55;1.58;;;0.40;;
28170;SDS011;15458;53.346;-1.688;2024-02-21T14:10:21;2.15;;;2.05;;
28170;SDS011;15458;53.346;-1.688;2024-02-21T14:12:47;0.20;;;0.20;;
28170;SDS011;15458;53.346;-1.688;2024-02-21T14:15:13;0.55;;;0.38;;
28170;SDS011;15458;53.346;-1.688;2024-02-21T14:17:39;0.10;;;0.10;;
28170;SDS011;15458;53.346;-1.688;2024-02-21T14:20:06;2.78;;;2.08;;
28170;SDS011;15458;53.346;-1.688;2024-02-21T14:22:33;1.05;;;0.77;;
28170;SDS011;15458;53.346;-1.688;2024-02-21T14:24:59;3.75;;;2.63;;
28170;SDS011;15458;53.346;-1.688;2024-02-21T14:27:25;4.35;;;3.10;;
28170;SDS011;15458;53.346;-1.688;2024-02-21T14:29:51;2.55;;;2.35;;
28170;SDS011;15458;53.346;-1.688;2024-02-21T14:32:18;1.38;;;1.27;;
28170;SDS011;15458;53.346;-1.688;2024-02-21T14:34:45;1.25;;;1.15;;
28170;SDS011;15458;53.346;-1.688;2024-02-21T14:37:10;2.47;;;1.20;;
28170;SDS011;15458;53.346;-1.688;2024-02-21T14:39:37;0.52;;;0.52;;
28170;SDS011;15458;53.346;-1.688;2024-02-21T14:42:03;1.52;;;0.80;;
28170;SDS011;15458;53.346;-1.688;2024-02-21T14:44:28;0.65;;;0.60;;
28170;SDS011;15458;53.346;-1.688;2024-02-21T14:46:54;0.55;;;0.55;;
28170;SDS011;15458;53.346;-1.688;2024-02-21T14:49:20;1.75;;;1.35;;